Latest Weather Observations for Point Wilson

IDV60901

Issued at 2:21 pm EST Thursday 25 April 2024 (issued every 10 minutes, with the page automatically refreshed every 10 minutes)

About weather observations | Map of Melbourne area stations | Latest observations for Melbourne area | Other Formats
Station Details ID: 087166 Name: POINT WILSON Lat: -38.10 Lon: 144.54 Height: 18.0 m
Data from the previous 72 hours. | See also: Recent months at Point Wilson
Date/Time
EST
Temp
°C
App
Temp
°C
Dew
Point
°C
Rel
Hum
%
Delta-T
°C
Wind Press
QNH
hPa
Press
MSL
hPa
Rain since
9am
mm
Dir  Spd
km/h
Gust
km/h
Spd
kts
Gust
kts
25/02:00pm - - - - - SSW 20 24 11 13 - - -
25/01:30pm - - - - - S 22 28 12 15 - - -
25/01:00pm - - - - - SSW 28 35 15 19 - - -
25/12:30pm - - - - - SSW 22 28 12 15 - - -
25/12:00pm - - - - - SW 20 26 11 14 - - -
25/11:30am - - - - - SW 19 26 10 14 - - -
25/11:00am - - - - - WSW 22 30 12 16 - - -
25/10:30am - - - - - SW 26 37 14 20 - - -
25/10:00am - - - - - SW 30 41 16 22 - - -
25/09:30am - - - - - WSW 26 30 14 16 - - -
25/09:00am - - - - - WSW 28 35 15 19 - - -
25/08:30am - - - - - WSW 26 32 14 17 - - -
25/08:00am - - - - - WSW 26 32 14 17 - - -
25/07:30am - - - - - WSW 32 37 17 20 - - -
25/07:00am - - - - - WSW 30 37 16 20 - - -
25/06:30am - - - - - W 32 35 17 19 - - -
25/06:00am - - - - - W 35 41 19 22 - - -
25/05:30am - - - - - W 33 39 18 21 - - -
25/05:00am - - - - - W 33 41 18 22 - - -
25/04:30am - - - - - W 37 46 20 25 - - -
25/04:00am - - - - - W 35 43 19 23 - - -
25/03:30am - - - - - W 37 44 20 24 - - -
25/03:00am - - - - - W 37 44 20 24 - - -
25/02:30am - - - - - W 39 46 21 25 - - -
25/02:00am - - - - - W 37 44 20 24 - - -
25/01:30am - - - - - W 35 44 19 24 - - -
25/01:00am - - - - - W 33 44 18 24 - - -
25/12:30am - - - - - W 33 41 18 22 - - -
25/12:00am - - - - - W 33 44 18 24 - - -
 
Date/Time
EST
Temp
°C
App
Temp
°C
Dew
Point
°C
Rel
Hum
%
Delta-T
°C
Wind Press
QNH
hPa
Press
MSL
hPa
Rain since
9am
mm
Dir  Spd
km/h
Gust
km/h
Spd
kts
Gust
kts
24/11:30pm - - - - - WNW 26 37 14 20 - - -
24/11:00pm - - - - - WNW 20 28 11 15 - - -
24/10:30pm - - - - - WNW 20 26 11 14 - - -
24/10:00pm - - - - - W 32 41 17 22 - - -
24/09:30pm - - - - - W 33 41 18 22 - - -
24/09:00pm - - - - - W 30 37 16 20 - - -
24/08:30pm - - - - - WSW 32 39 17 21 - - -
24/08:00pm - - - - - WSW 26 32 14 17 - - -
24/07:30pm - - - - - WSW 24 32 13 17 - - -
24/07:00pm - - - - - SW 26 32 14 17 - - -
24/06:30pm - - - - - SW 30 41 16 22 - - -
24/06:00pm - - - - - WSW 35 44 19 24 - - -
24/05:30pm - - - - - WSW 35 41 19 22 - - -
24/05:00pm - - - - - SW 33 41 18 22 - - -
24/04:30pm - - - - - SW 33 41 18 22 - - -
24/04:00pm - - - - - SW 24 37 13 20 - - -
24/03:30pm - - - - - SSW 24 32 13 17 - - -
24/03:00pm - - - - - SSW 22 28 12 15 - - -
24/02:30pm - - - - - SSW 28 35 15 19 - - -
24/02:00pm - - - - - SW 20 24 11 13 - - -
24/01:30pm - - - - - SW 17 20 9 11 - - -
24/01:00pm - - - - - SW 17 20 9 11 - - -
24/12:30pm - - - - - SSW 30 37 16 20 - - -
24/12:00pm - - - - - S 30 39 16 21 - - -
24/11:30am - - - - - WSW 22 30 12 16 - - -
24/11:00am - - - - - SW 26 33 14 18 - - -
24/10:30am - - - - - SW 30 44 16 24 - - -
24/10:00am - - - - - SW 30 39 16 21 - - -
24/09:30am - - - - - WSW 32 39 17 21 - - -
24/09:00am - - - - - W 28 33 15 18 - - -
24/08:30am - - - - - W 26 33 14 18 - - -
24/08:00am - - - - - WNW 20 28 11 15 - - -
24/07:30am - - - - - SW 26 33 14 18 - - -
24/07:00am - - - - - WSW 30 37 16 20 - - -
24/06:30am - - - - - SW 30 39 16 21 - - -
24/06:08am - - - - - SW 37 61 20 33 - - -
24/06:01am - - - - - WSW 37 61 20 33 - - -
24/06:00am - - - - - WSW 35 50 19 27 - - -
24/05:30am - - - - - WSW 32 41 17 22 - - -
24/05:00am - - - - - WSW 39 56 21 30 - - -
24/04:30am - - - - - W 41 50 22 27 - - -
24/04:00am - - - - - W 43 52 23 28 - - -
24/03:30am - - - - - W 39 50 21 27 - - -
24/03:00am - - - - - W 39 54 21 29 - - -
24/02:30am - - - - - W 44 54 24 29 - - -
24/02:00am - - - - - W 43 59 23 32 - - -
24/01:30am - - - - - WNW 35 44 19 24 - - -
24/01:00am - - - - - WNW 32 39 17 21 - - -
24/12:30am - - - - - W 37 44 20 24 - - -
24/12:00am - - - - - WSW 39 48 21 26 - - -
 
Date/Time
EST
Temp
°C
App
Temp
°C
Dew
Point
°C
Rel
Hum
%
Delta-T
°C
Wind Press
QNH
hPa
Press
MSL
hPa
Rain since
9am
mm
Dir  Spd
km/h
Gust
km/h
Spd
kts
Gust
kts
23/11:30pm - - - - - WSW 52 65 28 35 - - -
23/11:00pm - - - - - WSW 56 72 30 39 - - -
23/10:54pm - - - - - WSW 52 70 28 38 - - -
23/10:30pm - - - - - W 48 59 26 32 - - -
23/10:29pm - - - - - W 48 59 26 32 - - -
23/10:19pm - - - - - W 33 52 18 28 - - -
23/10:00pm - - - - - W 32 41 17 22 - - -
23/09:30pm - - - - - WSW 33 39 18 21 - - -
23/09:00pm - - - - - W 26 33 14 18 - - -
23/08:30pm - - - - - SW 32 41 17 22 - - -
23/08:15pm - - - - - WSW 39 54 21 29 - - -
23/08:07pm - - - - - W 35 54 19 29 - - -
23/08:00pm - - - - - NNW 20 46 11 25 - - -
23/07:30pm - - - - - N 9 24 5 13 - - -
23/07:00pm - - - - - N 11 28 6 15 - - -
23/06:30pm - - - - - N 13 28 7 15 - - -
23/06:00pm - - - - - N 13 26 7 14 - - -
23/05:30pm - - - - - N 13 24 7 13 - - -
23/05:00pm - - - - - N 15 24 8 13 - - -
23/04:30pm - - - - - N 13 32 7 17 - - -
23/04:00pm - - - - - NNW 22 39 12 21 - - -
23/03:30pm - - - - - NNW 20 37 11 20 - - -
23/03:10pm - - - - - NNW 28 46 15 25 - - -
23/03:00pm - - - - - NNW 24 43 13 23 - - -
23/02:30pm - - - - - NNW 28 50 15 27 - - -
23/02:28pm - - - - - NNW 28 50 15 27 - - -
23/02:00pm - - - - - NNW 24 41 13 22 - - -
23/01:30pm - - - - - NNW 28 48 15 26 - - -
23/01:01pm - - - - - NNW 28 48 15 26 - - -
23/01:00pm - - - - - NNW 26 48 14 26 - - -
23/12:37pm - - - - - NNW 28 46 15 25 - - -
23/12:30pm - - - - - NNW 22 44 12 24 - - -
23/12:00pm - - - - - N 20 43 11 23 - - -
23/11:30am - - - - - N 22 50 12 27 - - -
23/11:00am - - - - - N 13 39 7 21 - - -
23/10:30am - - - - - N 7 24 4 13 - - -
23/10:00am - - - - - N 9 20 5 11 - - -
23/09:30am - - - - - N 7 28 4 15 - - -
23/09:00am - - - - - N 9 33 5 18 - - -
23/08:30am - - - - - NNW 6 19 3 10 - - -
23/08:00am - - - - - NNW 6 17 3 9 - - -
23/07:30am - - - - - NNW 4 9 2 5 - - -
23/07:00am - - - - - N 4 7 2 4 - - -
23/06:30am - - - - - NNE 2 6 1 3 - - -
23/06:00am - - - - - WSW 9 13 5 7 - - -
23/05:30am - - - - - WNW 7 7 4 4 - - -
23/05:00am - - - - - NW 7 13 4 7 - - -
23/04:30am - - - - - NNW 4 11 2 6 - - -
23/04:00am - - - - - N 4 11 2 6 - - -
23/03:30am - - - - - N 4 9 2 5 - - -
23/03:00am - - - - - NE 9 13 5 7 - - -
23/02:30am - - - - - NNE 7 13 4 7 - - -
23/02:00am - - - - - N 6 13 3 7 - - -
23/01:30am - - - - - NE 7 11 4 6 - - -
23/01:00am - - - - - NW 2 9 1 5 - - -
23/12:30am - - - - - NNE 2 9 1 5 - - -
23/12:00am - - - - - NNW 6 15 3 8 - - -
 
Date/Time
EST
Temp
°C
App
Temp
°C
Dew
Point
°C
Rel
Hum
%
Delta-T
°C
Wind Press
QNH
hPa
Press
MSL
hPa
Rain since
9am
mm
Dir  Spd
km/h
Gust
km/h
Spd
kts
Gust
kts
22/11:30pm - - - - - NNW 7 13 4 7 - - -
22/11:00pm - - - - - NNW 6 9 3 5 - - -
22/10:30pm - - - - - NW 7 11 4 6 - - -
22/10:00pm - - - - - NNW 6 9 3 5 - - -
22/09:30pm - - - - - NNE 4 11 2 6 - - -
22/09:00pm - - - - - NW 4 6 2 3 - - -
22/08:30pm - - - - - NNW 4 7 2 4 - - -
22/08:00pm - - - - - N 4 11 2 6 - - -
22/07:30pm - - - - - N 7 13 4 7 - - -
22/07:00pm - - - - - N 6 13 3 7 - - -
22/06:30pm - - - - - N 6 13 3 7 - - -
22/06:00pm - - - - - N 7 13 4 7 - - -
22/05:30pm - - - - - NNE 7 13 4 7 - - -
22/05:00pm - - - - - NE 13 17 7 9 - - -
22/04:30pm - - - - - NE 11 13 6 7 - - -
22/04:00pm - - - - - NE 15 15 8 8 - - -
22/03:30pm - - - - - ENE 13 15 7 8 - - -
22/03:00pm - - - - - ENE 11 13 6 7 - - -
22/02:30pm - - - - - SE 9 11 5 6 - - -

Latest Capital City Observations: Canberra | Sydney | Melbourne | Brisbane | Adelaide | Perth | Hobart | Darwin

Other formats

Comma delimited format used in spreadsheet applications
http://www.bom.gov.au/fwo/IDV60901/IDV60901.94847.axf

JavaScript Object Notation format (JSON) in row-major order
http://www.bom.gov.au/fwo/IDV60901/IDV60901.94847.json

Data quality

Most of these data are generated automatically and are frequently updated. Quality checks on data are not normally performed. It is possible for incorrect values to appear. Refer to information at About Latest Weather Observations and please check the disclaimer before using these data.